Latest Weather Observations for Cape Sorell

IDT60801

Issued at 8:01 pm EDT Wednesday 25 November 2020 (issued every 10 minutes, with the page automatically refreshed every 10 minutes)

About weather observations | Map of weather stations | Latest weather observations for TAS | Other Formats
Station Details ID: 097000 Name: CAPE SORELL Lat: -42.20 Lon: 145.17 Height: 19.3 m
Data from the previous 72 hours. | See also: Recent months at Cape Sorell
Date/Time
EDT
Temp
°C
App
Temp
°C
Dew
Point
°C
Rel
Hum
%
Delta-T
°C
Wind Press
QNH
hPa
Press
MSL
hPa
Rain since
9am
mm
Dir  Spd
km/h
Gust
km/h
Spd
kts
Gust
kts
25/08:00pm 15.3 10.6 11.9 80 1.8 NW 28 35 15 19 1006.2 1006.2 0.0
25/07:30pm 15.4 9.6 11.6 78 2.0 NNW 33 43 18 23 1005.7 1005.7 0.0
25/07:00pm 15.6 9.8 11.6 77 2.2 NNW 33 48 18 26 1005.3 1005.3 0.0
25/06:30pm 15.6 9.0 11.2 75 2.4 NNW 37 52 20 28 1004.9 1004.9 0.0
25/06:00pm 15.9 8.8 12.1 78 2.1 N 41 54 22 29 1004.7 1004.7 0.0
25/05:30pm 16.0 8.5 12.6 80 1.9 N 44 54 24 29 1004.8 1004.8 0.0
25/05:00pm 16.1 8.7 13.2 83 1.6 N 44 52 24 28 1005.1 1005.1 0.0
25/04:36pm 16.8 11.5 14.1 84 1.5 NNW 35 56 19 30 1005.7 1005.7 0.0
25/04:30pm 16.8 10.3 14.1 84 1.5 NNW 41 56 22 30 1005.5 1005.5 0.0
25/04:00pm 16.8 11.3 14.8 88 1.2 NNW 37 54 20 29 1005.7 1005.7 0.0
25/03:30pm 16.1 9.2 14.5 90 0.9 N 44 54 24 29 1005.5 1005.5 0.0
25/03:00pm 15.6 7.9 14.5 93 0.6 N 48 61 26 33 1005.3 1005.3 0.0
25/02:30pm 15.2 9.5 14.2 94 0.6 NNW 37 54 20 29 1005.9 1005.9 0.0
25/02:00pm 15.4 9.8 14.4 94 0.6 NNW 37 54 20 29 1006.2 1006.2 0.0
25/01:37pm 15.6 9.7 14.6 94 0.6 NNW 39 59 21 32 1005.8 1005.8 0.0
25/01:30pm 15.8 9.9 14.8 94 0.6 NNW 39 52 21 28 1006.1 1006.1 0.0
25/01:00pm 15.7 9.5 14.9 95 0.5 NNW 41 54 22 29 1006.1 1006.1 0.0
25/12:30pm 15.4 10.3 14.8 96 0.3 NNW 35 52 19 28 1006.9 1006.9 0.0
25/12:00pm 15.3 9.8 14.7 96 0.3 NNW 37 52 20 28 1006.7 1006.7 0.0
25/11:30am 15.0 9.0 14.5 97 0.3 NNW 39 50 21 27 1007.0 1007.0 0.0
25/11:09am 14.9 8.9 14.4 97 0.3 NNW 39 57 21 31 1007.0 1007.0 0.0
25/11:00am 14.9 8.5 14.4 97 0.3 NNW 41 57 22 31 1006.8 1006.8 0.0
25/10:56am 14.9 9.3 14.4 97 0.3 NNW 37 57 20 31 1006.9 1006.9 0.0
25/10:30am 14.8 8.8 14.5 98 0.2 NNW 39 54 21 29 1006.8 1006.8 0.0
25/10:00am 14.8 10.0 14.5 98 0.2 NNW 33 48 18 26 1006.9 1006.9 0.0
25/09:30am 14.7 9.1 14.4 98 0.2 NNW 37 48 20 26 1006.9 1006.9 0.0
25/09:00am 14.7 9.1 14.4 98 0.2 NNW 37 44 20 24 1006.9 1006.9 2.8
25/08:30am 14.7 9.5 14.4 98 0.2 N 35 48 19 26 1007.1 1007.1 2.8
25/08:00am 14.8 9.6 14.5 98 0.2 N 35 43 19 23 1007.1 1007.1 2.8
25/07:30am 14.6 9.8 14.6 100 0.0 N 33 46 18 25 1006.7 1006.7 2.8
25/07:00am 14.3 9.6 14.3 100 0.0 N 32 41 17 22 1006.9 1006.9 2.8
25/06:30am 14.1 9.1 14.1 100 0.0 N 33 39 18 21 1006.8 1006.8 2.8
25/06:00am 14.1 9.3 14.1 100 0.0 N 32 39 17 21 1007.2 1007.2 2.8
25/05:30am 14.0 9.2 14.0 100 0.0 N 32 39 17 21 1007.3 1007.3 2.8
25/05:00am 14.1 9.3 14.1 100 0.0 N 32 37 17 20 1007.3 1007.3 2.6
25/04:30am 14.1 10.0 13.9 99 0.1 N 28 37 15 20 1007.6 1007.6 2.6
25/04:00am 14.1 10.8 13.9 99 0.1 N 24 33 13 18 1007.8 1007.8 2.4
25/03:30am 14.2 10.2 14.0 99 0.1 N 28 35 15 19 1008.0 1008.0 2.0
25/03:00am 14.1 9.6 13.9 99 0.1 N 30 35 16 19 1008.2 1008.2 2.0
25/02:30am 14.1 10.0 13.9 99 0.1 N 28 33 15 18 1008.4 1008.4 2.0
25/02:00am 14.1 10.4 13.8 98 0.2 N 26 32 14 17 1008.8 1008.8 1.8
25/01:30am 14.1 11.5 13.8 98 0.2 NNW 20 28 11 15 1009.4 1009.4 1.8
25/01:00am 14.2 11.3 13.9 98 0.2 NNW 22 32 12 17 1009.6 1009.6 1.8
25/12:30am 14.2 10.4 13.7 97 0.3 NNW 26 33 14 18 1009.9 1009.9 1.6
25/12:00am 14.3 11.3 13.8 97 0.3 NNW 22 30 12 16 1010.2 1010.2 1.6
 
Date/Time
EDT
Temp
°C
App
Temp
°C
Dew
Point
°C
Rel
Hum
%
Delta-T
°C
Wind Press
QNH
hPa
Press
MSL
hPa
Rain since
9am
mm
Dir  Spd
km/h
Gust
km/h
Spd
kts
Gust
kts
24/11:30pm 14.3 11.7 13.7 96 0.3 NNW 20 30 11 16 1010.5 1010.5 1.4
24/11:00pm 14.2 11.7 13.6 96 0.3 NNW 19 26 10 14 1010.6 1010.6 1.4
24/10:30pm 14.2 11.5 13.6 96 0.3 NNW 20 26 11 14 1010.7 1010.7 1.4
24/10:00pm 14.2 10.7 13.4 95 0.4 NNW 24 30 13 16 1010.8 1010.8 1.4
24/09:30pm 14.2 11.7 13.4 95 0.4 NNW 19 28 10 15 1010.6 1010.6 1.2
24/09:00pm 14.3 11.5 13.3 94 0.6 NNW 20 30 11 16 1010.4 1010.4 1.2
24/08:30pm 14.3 11.1 13.2 93 0.6 NNW 22 32 12 17 1010.3 1010.3 1.2
24/08:00pm 14.4 11.6 13.1 92 0.7 NNW 20 30 11 16 1010.2 1010.2 1.2
24/07:30pm 14.5 11.3 13.0 91 0.8 NNW 22 32 12 17 1010.1 1010.1 1.2
24/07:00pm 14.5 10.9 13.0 91 0.8 NNW 24 32 13 17 1009.9 1009.9 1.2
24/06:30pm 14.7 11.1 13.1 90 0.9 NNW 24 33 13 18 1009.5 1009.5 1.2
24/06:00pm 14.9 11.8 13.3 90 0.9 NNW 22 28 12 15 1009.4 1009.4 1.2
24/05:30pm 15.4 12.1 13.9 91 0.8 NNW 24 30 13 16 1009.5 1009.5 1.2
24/05:00pm 15.1 12.1 13.8 92 0.7 NW 22 35 12 19 1009.8 1009.8 1.2
24/04:30pm 14.7 11.3 13.6 93 0.6 NW 24 33 13 18 1009.7 1009.7 1.2
24/04:00pm 14.4 11.3 13.3 93 0.6 NW 22 32 12 17 1009.7 1009.7 1.2
24/03:30pm 14.9 12.5 13.9 94 0.6 NW 19 26 10 14 1009.7 1009.7 1.2
24/03:00pm 14.4 11.3 13.3 93 0.6 NW 22 28 12 15 1009.8 1009.8 1.2
24/02:30pm 14.2 11.0 13.1 93 0.6 NW 22 28 12 15 1009.9 1009.9 1.0
24/02:00pm 14.6 11.5 13.5 93 0.6 NNW 22 30 12 16 1009.8 1009.8 1.0
24/01:30pm 14.1 10.9 13.1 94 0.6 NNW 22 30 12 16 1009.9 1009.9 1.0
24/01:00pm 13.7 9.6 12.8 94 0.5 NNW 26 32 14 17 1010.3 1010.3 1.0
24/12:30pm 13.7 10.0 12.8 94 0.5 NNW 24 33 13 18 1010.4 1010.4 1.0
24/12:00pm 13.9 10.7 13.0 94 0.5 NW 22 28 12 15 1010.5 1010.5 1.0
24/11:30am 14.1 11.5 13.3 95 0.4 NNW 19 30 10 16 1010.8 1010.8 1.0
24/11:00am 13.0 9.0 11.9 93 0.6 N 24 35 13 19 1010.9 1010.9 0.8
24/10:30am 12.9 8.1 11.6 92 0.7 N 28 32 15 17 1010.9 1010.9 0.4
24/10:00am 12.7 8.1 11.1 90 0.8 N 26 33 14 18 1011.1 1011.1 0.4
24/09:30am 12.5 7.7 10.4 87 1.1 N 26 32 14 17 1010.9 1010.9 0.2
24/09:00am 12.8 8.6 9.8 82 1.5 N 22 28 12 15 1010.7 1010.7 0.0
24/08:30am 13.8 10.6 10.0 78 2.0 NNW 17 22 9 12 1010.9 1010.9 0.0
24/08:00am 13.6 10.4 9.8 78 2.0 NNW 17 22 9 12 1010.8 1010.8 0.0
24/07:30am 13.6 10.8 10.0 79 1.9 NNW 15 20 8 11 1010.6 1010.6 0.0
24/07:00am 13.4 10.5 9.8 79 1.9 NNW 15 20 8 11 1010.2 1010.2 0.0
24/06:30am 13.1 10.5 9.5 79 1.8 NNW 13 19 7 10 1009.9 1009.9 0.0
24/06:00am 13.0 10.8 9.4 79 1.8 NNW 11 15 6 8 1009.9 1009.9 0.0
24/05:30am 12.9 10.7 9.2 78 1.9 NW 11 17 6 9 1010.2 1010.2 0.0
24/05:00am 12.9 10.3 9.2 78 1.9 NW 13 17 7 9 1010.0 1010.0 0.0
24/04:30am 12.7 10.8 9.0 78 1.9 NNW 9 13 5 7 1010.3 1010.3 0.0
24/04:00am 12.5 9.8 9.0 79 1.8 NW 13 19 7 10 1010.3 1010.3 0.0
24/03:30am 12.5 11.0 9.1 80 1.7 NW 7 11 4 6 1010.7 1010.7 0.0
24/03:00am 12.4 10.5 8.9 79 1.8 NW 9 13 5 7 1011.0 1011.0 0.0
24/02:30am 12.7 11.2 9.2 79 1.8 NW 7 11 4 6 1011.3 1011.3 0.0
24/02:00am 12.4 10.8 8.9 79 1.8 NW 7 9 4 5 1011.3 1011.3 0.0
24/01:30am 12.6 11.1 9.1 79 1.8 WNW 7 9 4 5 1011.7 1011.7 0.0
24/01:00am 12.4 10.8 8.9 79 1.8 WSW 7 9 4 5 1012.1 1012.1 0.0
24/12:30am 12.3 10.3 8.6 78 1.8 SW 9 13 5 7 1012.4 1012.4 0.0
24/12:00am 12.5 10.5 8.8 78 1.9 SW 9 11 5 6 1012.6 1012.6 0.0
 
Date/Time
EDT
Temp
°C
App
Temp
°C
Dew
Point
°C
Rel
Hum
%
Delta-T
°C
Wind Press
QNH
hPa
Press
MSL
hPa
Rain since
9am
mm
Dir  Spd
km/h
Gust
km/h
Spd
kts
Gust
kts
23/11:30pm 12.6 8.8 9.1 79 1.8 SW 19 20 10 11 1012.6 1012.6 0.0
23/11:00pm 12.7 9.7 9.2 79 1.8 SW 15 19 8 10 1012.7 1012.7 0.0
23/10:30pm 12.7 8.3 9.0 78 1.9 SW 22 24 12 13 1012.6 1012.6 0.0
23/10:00pm 12.8 7.6 8.7 76 2.1 SW 26 30 14 16 1012.5 1012.5 0.0
23/09:30pm 13.3 8.9 8.8 74 2.3 SW 22 26 12 14 1012.5 1012.5 0.0
23/09:00pm 12.9 7.6 8.4 74 2.2 SW 26 30 14 16 1012.6 1012.6 0.0
23/08:30pm 13.0 8.5 8.5 74 2.2 SW 22 26 12 14 1012.4 1012.4 0.0
23/08:00pm 13.6 8.4 8.9 73 2.4 SW 26 30 14 16 1012.2 1012.2 0.0
23/07:30pm 14.9 10.4 9.9 72 2.6 SW 24 30 13 16 1012.1 1012.1 0.0
23/07:00pm 15.3 10.5 10.3 72 2.6 SSW 26 30 14 16 1011.9 1011.9 0.0
23/06:30pm 15.5 10.8 10.5 72 2.6 SSW 26 30 14 16 1011.4 1011.4 0.0
23/06:00pm 15.7 10.7 10.9 73 2.6 SSW 28 32 15 17 1011.3 1011.3 0.0
23/05:30pm 15.8 10.8 11.0 73 2.6 SSW 28 32 15 17 1011.2 1011.2 0.0
23/05:00pm 15.0 10.6 10.4 74 2.4 SSW 24 30 13 16 1011.3 1011.3 0.0
23/04:30pm 15.8 11.5 10.8 72 2.7 SSW 24 28 13 15 1011.4 1011.4 0.0
23/04:00pm 16.3 11.2 10.6 69 3.0 SSW 28 32 15 17 1011.3 1011.3 0.0
23/03:30pm 17.3 11.6 11.1 67 3.3 SSW 32 35 17 19 1011.1 1011.1 0.0
23/03:00pm 16.9 11.6 11.2 69 3.1 SSW 30 33 16 18 1011.2 1011.2 0.0
23/02:30pm 16.6 10.9 11.1 70 3.0 SSW 32 35 17 19 1011.2 1011.2 0.0
23/02:00pm 16.6 10.9 11.3 71 2.9 SSW 32 35 17 19 1011.2 1011.2 0.0
23/01:30pm 16.7 12.3 11.6 72 2.8 SSW 26 32 14 17 1011.2 1011.2 0.0
23/01:00pm 15.6 10.1 10.4 71 2.7 SSW 30 33 16 18 1011.3 1011.3 0.0
23/12:30pm 15.7 9.9 10.7 72 2.7 SSW 32 37 17 20 1011.2 1011.2 0.0
23/12:00pm 15.7 9.4 11.1 74 2.5 SSW 35 41 19 22 1011.2 1011.2 0.0
23/11:30am 15.5 9.6 11.1 75 2.4 SSW 33 39 18 21 1011.1 1011.1 0.0
23/11:00am 15.2 8.2 11.2 77 2.1 SSW 39 44 21 24 1011.1 1011.1 0.0
23/10:30am 15.2 9.4 11.6 79 1.9 S 33 41 18 22 1011.0 1011.0 0.0
23/10:00am 14.8 9.2 11.6 81 1.7 S 32 39 17 21 1010.8 1010.8 0.0
23/09:30am 14.6 8.9 11.7 83 1.6 S 33 41 18 22 1010.9 1010.9 0.0
23/09:00am 14.2 8.1 11.7 85 1.3 S 35 43 19 23 1010.7 1010.7 0.0
23/08:30am 13.7 7.2 11.6 87 1.1 S 37 50 20 27 1010.3 1010.3 0.0
23/08:00am 13.3 7.5 11.5 89 1.0 S 33 44 18 24 1010.1 1010.1 0.0
23/07:30am 13.4 7.9 12.0 91 0.8 S 32 41 17 22 1010.0 1010.0 0.0
23/07:00am 12.9 8.1 11.5 91 0.7 S 28 41 15 22 1009.7 1009.7 0.0
23/06:30am 12.6 8.8 11.3 92 0.7 SSE 22 32 12 17 1009.6 1009.6 0.0
23/06:00am 12.7 8.2 11.4 92 0.7 SSE 26 35 14 19 1009.1 1009.1 0.0
23/05:30am 12.9 7.3 11.5 91 0.7 S 32 39 17 21 1008.8 1008.8 0.0
23/05:00am 13.1 7.9 11.5 90 0.9 S 30 39 16 21 1008.4 1008.4 0.0
23/04:30am 12.8 8.2 11.0 89 0.9 S 26 33 14 18 1008.3 1008.3 0.0
23/04:00am 12.7 9.2 10.9 89 0.9 S 20 26 11 14 1008.6 1008.6 0.0
23/03:30am 12.9 10.0 11.1 89 0.9 S 17 24 9 13 1008.7 1008.7 0.0
23/03:00am 12.9 10.0 11.1 89 0.9 S 17 20 9 11 1008.8 1008.8 0.0
23/02:30am 12.7 10.1 10.8 88 1.0 S 15 19 8 10 1008.9 1008.9 0.0
23/02:00am 13.1 9.7 11.2 88 1.0 S 20 28 11 15 1008.8 1008.8 0.0
23/01:30am 13.1 10.6 11.2 88 1.0 S 15 22 8 12 1009.1 1009.1 0.0
23/01:00am 13.4 10.3 11.5 88 1.0 S 19 26 10 14 1009.3 1009.3 0.0
23/12:30am 13.4 10.6 11.5 88 1.0 S 17 24 9 13 1009.5 1009.5 0.0
23/12:00am 13.2 10.8 11.3 88 1.0 S 15 20 8 11 1009.6 1009.6 0.0
 
Date/Time
EDT
Temp
°C
App
Temp
°C
Dew
Point
°C
Rel
Hum
%
Delta-T
°C
Wind Press
QNH
hPa
Press
MSL
hPa
Rain since
9am
mm
Dir  Spd
km/h
Gust
km/h
Spd
kts
Gust
kts
22/11:30pm 13.5 10.8 11.6 88 1.0 S 17 24 9 13 1009.9 1009.9 0.0
22/11:00pm 14.0 11.0 12.0 88 1.1 S 19 24 10 13 1010.4 1010.4 0.0
22/10:30pm 14.3 10.4 12.2 87 1.1 S 24 28 13 15 1010.6 1010.6 0.0
22/10:00pm 14.3 10.7 11.8 85 1.3 S 22 28 12 15 1010.5 1010.5 0.0
22/09:30pm 14.4 10.0 11.7 84 1.5 S 26 33 14 18 1010.5 1010.5 0.0
22/09:00pm 14.6 10.2 11.7 83 1.6 S 26 35 14 19 1010.5 1010.5 0.0
22/08:30pm 14.8 9.7 11.8 82 1.6 S 30 39 16 21 1010.3 1010.3 0.0

Other formats

Comma delimited format used in spreadsheet applications
http://www.bom.gov.au/fwo/IDT60801/IDT60801.94974.axf

JavaScript Object Notation format (JSON) in row-major order
http://www.bom.gov.au/fwo/IDT60801/IDT60801.94974.json

Data quality

Most of these data are generated automatically and are frequently updated. Quality checks on data are not normally performed. It is possible for incorrect values to appear. Refer to information at About Latest Weather Observations and please check the disclaimer before using these data.